Time;durP1;ratioP1;P1;durP2;ratioP2;P2;SDS_P1;SDS_P2;PMS_P1;PMS_P2;Temp;Humidity;BMP_temperature;BMP_pressure;BME280_temperature;BME280_humidity;BME280_pressure;Samples;Min_cycle;Max_cycle;Signal;HPM_P1;HPM_P2
2021/12/31 00:00:12;;;;;;;6.97;3.85;;;;;;;;;;5129650;27;20087;-73
2021/12/31 00:02:38;;;;;;;7.47;4.35;;;;;;;;;;5111126;27;20040;-73
2021/12/31 00:05:05;;;;;;;7.97;4.35;;;;;;;;;;5132407;27;20031;-73
2021/12/31 00:07:32;;;;;;;5.90;4.15;;;;;;;;;;5130669;27;20019;-73
2021/12/31 00:10:01;;;;;;;7.10;4.57;;;;;;;;;;5131210;27;20033;-73
2021/12/31 00:12:28;;;;;;;5.40;3.55;;;;;;;;;;5129588;27;20019;-73
2021/12/31 00:14:55;;;;;;;7.78;4.32;;;;;;;;;;5129716;27;20064;-74
2021/12/31 00:17:21;;;;;;;5.03;3.10;;;;;;;;;;5130243;27;20501;-74
2021/12/31 00:19:50;;;;;;;6.85;3.40;;;;;;;;;;5113496;27;20028;-73
2021/12/31 00:25:02;;;;;;;5.13;3.92;;;;;;;;;;5129205;27;20485;-74
2021/12/31 00:27:28;;;;;;;6.50;3.97;;;;;;;;;;5113812;27;20385;-74
2021/12/31 00:29:55;;;;;;;5.82;3.80;;;;;;;;;;5129331;27;20022;-73
2021/12/31 00:32:21;;;;;;;4.65;3.60;;;;;;;;;;5130550;27;20038;-74
2021/12/31 00:34:47;;;;;;;5.82;3.70;;;;;;;;;;5131537;27;20029;-73
2021/12/31 00:37:14;;;;;;;7.93;3.72;;;;;;;;;;5128938;27;20023;-73
2021/12/31 00:39:40;;;;;;;6.72;3.95;;;;;;;;;;5129108;27;20027;-73
2021/12/31 00:42:06;;;;;;;6.78;3.60;;;;;;;;;;5129008;27;20023;-74
2021/12/31 00:44:33;;;;;;;6.68;4.07;;;;;;;;;;5129064;28;20023;-74
2021/12/31 00:46:59;;;;;;;7.57;4.38;;;;;;;;;;5132437;28;20035;-73
2021/12/31 00:49:26;;;;;;;6.63;4.78;;;;;;;;;;5130824;28;20553;-73
2021/12/31 00:51:52;;;;;;;7.70;4.90;;;;;;;;;;5110705;28;20033;-74
2021/12/31 00:54:18;;;;;;;7.63;4.35;;;;;;;;;;5128914;28;20443;-73
2021/12/31 00:56:45;;;;;;;8.05;4.90;;;;;;;;;;5128839;28;20032;-74
2021/12/31 00:59:11;;;;;;;5.03;3.83;;;;;;;;;;5131441;28;20566;-74
2021/12/31 01:01:37;;;;;;;12.55;3.78;;;;;;;;;;5129751;28;20022;-74
2021/12/31 01:04:04;;;;;;;8.32;3.83;;;;;;;;;;5129322;27;20029;-73
2021/12/31 01:06:30;;;;;;;5.05;3.67;;;;;;;;;;5132869;27;20012;-73
2021/12/31 01:08:56;;;;;;;8.52;3.92;;;;;;;;;;5133434;27;20019;-73
2021/12/31 01:11:23;;;;;;;8.73;4.43;;;;;;;;;;5134236;27;20412;-74
2021/12/31 01:16:18;;;;;;;6.80;3.63;;;;;;;;;;5132579;27;20016;-73
2021/12/31 01:21:21;;;;;;;4.30;3.05;;;;;;;;;;5114369;27;20027;-73
2021/12/31 01:23:50;;;;;;;6.65;3.55;;;;;;;;;;5132575;27;20406;-74
2021/12/31 01:26:17;;;;;;;6.72;3.53;;;;;;;;;;5134542;27;20068;-74
2021/12/31 01:28:44;;;;;;;5.85;3.00;;;;;;;;;;5136035;27;20431;-73
2021/12/31 01:31:10;;;;;;;7.47;3.85;;;;;;;;;;5131982;27;20482;-74
2021/12/31 01:33:37;;;;;;;6.50;3.80;;;;;;;;;;5114474;27;20027;-73
2021/12/31 01:36:06;;;;;;;7.03;3.85;;;;;;;;;;5132499;27;20127;-74
2021/12/31 01:38:35;;;;;;;6.72;4.20;;;;;;;;;;5114504;27;20025;-74
2021/12/31 01:41:01;;;;;;;6.30;3.97;;;;;;;;;;5117364;27;20489;-73
2021/12/31 01:43:27;;;;;;;6.43;3.92;;;;;;;;;;5132432;27;20560;-73
2021/12/31 01:45:56;;;;;;;9.02;4.18;;;;;;;;;;5131586;27;20043;-73
2021/12/31 01:50:53;;;;;;;7.63;3.95;;;;;;;;;;5132351;27;20037;-73
2021/12/31 01:53:22;;;;;;;10.68;4.47;;;;;;;;;;5133336;27;20100;-74
2021/12/31 01:55:50;;;;;;;9.70;5.00;;;;;;;;;;5134895;27;20024;-73
2021/12/31 01:58:17;;;;;;;12.35;5.07;;;;;;;;;;5113741;27;20075;-74
2021/12/31 02:00:44;;;;;;;35.20;5.75;;;;;;;;;;5131480;27;20011;-73
2021/12/31 02:03:11;;;;;;;14.82;5.53;;;;;;;;;;5131737;27;20046;-74
2021/12/31 02:05:38;;;;;;;16.98;6.00;;;;;;;;;;5133409;27;20019;-74
2021/12/31 02:08:05;;;;;;;22.98;6.35;;;;;;;;;;5134388;27;20031;-73
2021/12/31 02:10:32;;;;;;;17.40;6.43;;;;;;;;;;5132812;27;20020;-74
2021/12/31 02:12:58;;;;;;;18.25;6.30;;;;;;;;;;5131720;27;20022;-74
2021/12/31 02:15:26;;;;;;;12.65;6.13;;;;;;;;;;5131285;27;20027;-74
2021/12/31 02:17:53;;;;;;;14.20;6.13;;;;;;;;;;5131358;27;20023;-73
2021/12/31 02:20:20;;;;;;;10.10;5.80;;;;;;;;;;5133461;27;20017;-74
2021/12/31 02:22:55;;;;;;;15.73;5.47;;;;;;;;;;5133995;27;20023;-74
2021/12/31 02:25:24;;;;;;;10.38;5.25;;;;;;;;;;5131371;27;20087;-73
2021/12/31 02:27:50;;;;;;;10.05;5.20;;;;;;;;;;5130993;27;20019;-74
2021/12/31 02:30:16;;;;;;;8.32;4.68;;;;;;;;;;5131535;27;20041;-73
2021/12/31 02:32:43;;;;;;;9.38;4.93;;;;;;;;;;5131688;27;20016;-74
2021/12/31 02:35:10;;;;;;;11.55;4.55;;;;;;;;;;5133813;27;20038;-74
2021/12/31 02:37:37;;;;;;;15.73;6.03;;;;;;;;;;5132446;27;20434;-73
2021/12/31 02:40:04;;;;;;;15.80;6.32;;;;;;;;;;5131305;27;20029;-73
2021/12/31 02:42:31;;;;;;;11.82;6.15;;;;;;;;;;5130465;27;20396;-73
2021/12/31 02:44:58;;;;;;;17.00;5.95;;;;;;;;;;5132607;27;20430;-73
2021/12/31 02:47:24;;;;;;;23.38;6.68;;;;;;;;;;5128188;27;20040;-74
2021/12/31 02:49:51;;;;;;;16.08;5.93;;;;;;;;;;5099785;28;20042;-73
2021/12/31 02:52:18;;;;;;;11.60;6.30;;;;;;;;;;5115632;27;20031;-74
2021/12/31 02:54:46;;;;;;;8.65;5.03;;;;;;;;;;5115300;27;20072;-74
2021/12/31 02:57:13;;;;;;;8.70;5.65;;;;;;;;;;5114450;27;20023;-74
2021/12/31 02:59:40;;;;;;;8.77;5.43;;;;;;;;;;5111884;27;20020;-73
2021/12/31 03:02:07;;;;;;;13.25;6.70;;;;;;;;;;5115889;27;20027;-74
2021/12/31 03:04:35;;;;;;;10.02;5.15;;;;;;;;;;5116060;27;20084;-73
2021/12/31 03:07:04;;;;;;;7.93;3.88;;;;;;;;;;5114789;27;20012;-74
2021/12/31 03:09:31;;;;;;;5.05;3.42;;;;;;;;;;5114701;27;20049;-74
2021/12/31 03:11:58;;;;;;;5.85;3.80;;;;;;;;;;5114170;27;20060;-73
2021/12/31 03:14:26;;;;;;;5.80;2.67;;;;;;;;;;5111489;28;20042;-74
2021/12/31 03:16:53;;;;;;;8.05;3.42;;;;;;;;;;5117843;27;20393;-74
2021/12/31 03:19:20;;;;;;;4.55;3.00;;;;;;;;;;5114428;27;20486;-73
2021/12/31 03:21:47;;;;;;;6.75;3.17;;;;;;;;;;5114593;27;20018;-73
2021/12/31 03:24:14;;;;;;;9.40;3.25;;;;;;;;;;5115836;27;20043;-74
2021/12/31 03:26:40;;;;;;;7.25;3.70;;;;;;;;;;5111182;27;20030;-74
2021/12/31 03:29:06;;;;;;;7.07;3.58;;;;;;;;;;5096367;27;20035;-73
2021/12/31 03:31:33;;;;;;;8.75;4.03;;;;;;;;;;5115378;27;20068;-73
2021/12/31 03:33:59;;;;;;;15.43;3.92;;;;;;;;;;5108544;28;20026;-73
2021/12/31 03:36:25;;;;;;;7.57;4.28;;;;;;;;;;5114146;27;20026;-73
2021/12/31 03:38:52;;;;;;;10.40;4.18;;;;;;;;;;5112983;27;20023;-73
2021/12/31 03:41:18;;;;;;;12.82;4.55;;;;;;;;;;5112284;27;20040;-73
2021/12/31 03:43:44;;;;;;;16.08;6.13;;;;;;;;;;5097924;28;20043;-73
2021/12/31 03:46:11;;;;;;;14.05;5.00;;;;;;;;;;5114006;27;20044;-74
2021/12/31 03:48:37;;;;;;;10.68;4.90;;;;;;;;;;5109265;28;20084;-73
2021/12/31 03:51:04;;;;;;;16.02;4.95;;;;;;;;;;5109502;28;20371;-73
2021/12/31 03:53:30;;;;;;;14.85;4.93;;;;;;;;;;5109759;28;20038;-73
2021/12/31 03:55:56;;;;;;;12.52;4.68;;;;;;;;;;5112549;28;20016;-73
2021/12/31 03:58:23;;;;;;;9.82;4.00;;;;;;;;;;5109202;28;20023;-74
2021/12/31 04:00:49;;;;;;;6.63;3.80;;;;;;;;;;5109313;28;20470;-73
2021/12/31 04:03:16;;;;;;;6.07;4.00;;;;;;;;;;5110636;28;20028;-73
2021/12/31 04:05:43;;;;;;;6.30;3.80;;;;;;;;;;5091189;28;20019;-74
2021/12/31 04:08:10;;;;;;;6.63;3.40;;;;;;;;;;5111436;28;20020;-73
2021/12/31 04:10:36;;;;;;;6.93;3.60;;;;;;;;;;5091519;28;20035;-73
2021/12/31 04:13:03;;;;;;;9.68;4.57;;;;;;;;;;5108955;28;20385;-73
2021/12/31 04:15:29;;;;;;;6.25;3.70;;;;;;;;;;5108832;28;20034;-73
2021/12/31 04:17:55;;;;;;;7.15;3.45;;;;;;;;;;5108789;28;20028;-73
2021/12/31 04:20:33;;;;;;;5.88;3.53;;;;;;;;;;5109973;28;20043;-73
2021/12/31 04:23:02;;;;;;;7.95;2.80;;;;;;;;;;5108494;28;20027;-72
2021/12/31 04:25:28;;;;;;;3.08;2.28;;;;;;;;;;5090984;28;20024;-73
2021/12/31 04:27:55;;;;;;;5.28;2.50;;;;;;;;;;5108698;28;20016;-73
2021/12/31 04:30:21;;;;;;;5.35;3.30;;;;;;;;;;5108647;28;20041;-73
2021/12/31 04:32:48;;;;;;;7.38;3.65;;;;;;;;;;5108869;28;20028;-73
2021/12/31 04:35:17;;;;;;;8.13;3.38;;;;;;;;;;5110940;28;20027;-74
2021/12/31 04:37:43;;;;;;;8.25;3.10;;;;;;;;;;5110542;28;20506;-73
2021/12/31 04:40:10;;;;;;;4.75;2.80;;;;;;;;;;5107804;28;20023;-73
2021/12/31 04:42:38;;;;;;;5.72;1.33;;;;;;;;;;5109924;28;20020;-73
2021/12/31 04:45:05;;;;;;;1.60;1.30;;;;;;;;;;5108296;28;20024;-73
2021/12/31 04:47:31;;;;;;;2.72;1.52;;;;;;;;;;5123649;28;20412;-73
2021/12/31 04:49:58;;;;;;;1.85;1.20;;;;;;;;;;5116635;28;20030;-73
2021/12/31 04:52:24;;;;;;;1.58;1.30;;;;;;;;;;5113315;28;20036;-73
2021/12/31 04:54:51;;;;;;;1.65;1.38;;;;;;;;;;5112718;28;20030;-74
2021/12/31 04:57:17;;;;;;;2.53;1.30;;;;;;;;;;5109337;28;20028;-73
2021/12/31 04:59:43;;;;;;;4.28;1.50;;;;;;;;;;5124823;28;20031;-74
2021/12/31 05:02:10;;;;;;;2.45;1.60;;;;;;;;;;5095183;28;20034;-74
2021/12/31 05:04:36;;;;;;;5.00;1.90;;;;;;;;;;5095919;28;20040;-73
2021/12/31 05:07:02;;;;;;;3.97;2.20;;;;;;;;;;5112626;28;20028;-73
2021/12/31 05:09:29;;;;;;;2.75;2.00;;;;;;;;;;5112991;28;20020;-73
2021/12/31 05:11:55;;;;;;;2.63;2.08;;;;;;;;;;5093533;28;20019;-73
2021/12/31 05:14:22;;;;;;;2.25;1.60;;;;;;;;;;5110606;28;20016;-73
2021/12/31 05:16:48;;;;;;;3.55;1.60;;;;;;;;;;5097221;28;20027;-73
2021/12/31 05:19:15;;;;;;;2.20;1.50;;;;;;;;;;5112868;28;20023;-74
2021/12/31 05:21:41;;;;;;;2.60;1.67;;;;;;;;;;5114237;28;20104;-73
2021/12/31 05:24:08;;;;;;;5.78;1.95;;;;;;;;;;5112848;28;20037;-73
2021/12/31 05:26:34;;;;;;;2.83;1.77;;;;;;;;;;5109165;28;22350;-73
2021/12/31 05:29:02;;;;;;;4.20;1.85;;;;;;;;;;5115442;28;20026;-73
2021/12/31 05:31:28;;;;;;;3.45;1.33;;;;;;;;;;5095309;28;20424;-73
2021/12/31 05:33:55;;;;;;;2.03;1.30;;;;;;;;;;5112779;28;20023;-73
2021/12/31 05:36:21;;;;;;;4.18;1.60;;;;;;;;;;5112452;28;20049;-74
2021/12/31 05:38:48;;;;;;;4.30;1.65;;;;;;;;;;5110827;28;20027;-73
2021/12/31 05:41:14;;;;;;;2.83;1.85;;;;;;;;;;5112750;28;20028;-73
2021/12/31 05:43:40;;;;;;;6.95;1.83;;;;;;;;;;5114000;28;20036;-73
2021/12/31 05:46:07;;;;;;;3.28;1.88;;;;;;;;;;5112210;28;20048;-74
2021/12/31 05:48:33;;;;;;;4.22;1.65;;;;;;;;;;5107643;28;20022;-74
2021/12/31 05:51:00;;;;;;;1.48;1.30;;;;;;;;;;5108208;28;20030;-73
2021/12/31 05:53:26;;;;;;;1.58;1.25;;;;;;;;;;5111896;28;20555;-73
2021/12/31 05:55:53;;;;;;;3.45;1.45;;;;;;;;;;5114820;28;20020;-73
2021/12/31 05:58:19;;;;;;;2.25;0.90;;;;;;;;;;5111936;28;20046;-73
2021/12/31 06:00:46;;;;;;;1.52;0.90;;;;;;;;;;5113006;28;20027;-72
2021/12/31 06:03:12;;;;;;;1.67;1.17;;;;;;;;;;5111215;28;20043;-72
2021/12/31 06:05:38;;;;;;;3.38;0.90;;;;;;;;;;5111402;28;20061;-73
2021/12/31 06:08:05;;;;;;;1.00;0.90;;;;;;;;;;5113962;28;20011;-72
2021/12/31 06:10:32;;;;;;;1.00;0.90;;;;;;;;;;5112328;28;20072;-74
2021/12/31 06:12:59;;;;;;;2.33;1.25;;;;;;;;;;5111060;28;20375;-73
2021/12/31 06:15:27;;;;;;;0.90;0.85;;;;;;;;;;5110951;28;20022;-73
2021/12/31 06:17:54;;;;;;;1.05;0.90;;;;;;;;;;5111155;28;20071;-73
2021/12/31 06:20:21;;;;;;;2.13;1.60;;;;;;;;;;5112312;28;20055;-73
2021/12/31 06:22:47;;;;;;;9.38;3.03;;;;;;;;;;5113187;28;20137;-72
2021/12/31 06:25:13;;;;;;;7.43;4.50;;;;;;;;;;5110631;28;20034;-73
2021/12/31 06:27:40;;;;;;;8.13;5.03;;;;;;;;;;5110747;28;20024;-73
2021/12/31 06:30:06;;;;;;;9.07;4.65;;;;;;;;;;5110623;28;20050;-73
2021/12/31 06:32:33;;;;;;;12.27;4.68;;;;;;;;;;5111130;28;20024;-73
2021/12/31 06:34:59;;;;;;;16.55;3.92;;;;;;;;;;5096154;28;20024;-73
2021/12/31 06:37:25;;;;;;;8.10;3.25;;;;;;;;;;5110875;28;20028;-73
2021/12/31 06:39:53;;;;;;;8.68;3.10;;;;;;;;;;5112076;28;20069;-73
2021/12/31 06:42:19;;;;;;;4.70;3.17;;;;;;;;;;5110545;28;20486;-73
2021/12/31 06:44:46;;;;;;;4.15;2.97;;;;;;;;;;5092005;28;20046;-73
2021/12/31 06:47:12;;;;;;;5.47;2.95;;;;;;;;;;5127431;27;20065;-73
2021/12/31 06:49:39;;;;;;;4.13;2.35;;;;;;;;;;5116073;27;20020;-73
2021/12/31 06:52:06;;;;;;;3.78;2.58;;;;;;;;;;5115188;27;20016;-73
2021/12/31 06:54:32;;;;;;;2.75;2.08;;;;;;;;;;5115426;27;20023;-73
2021/12/31 06:56:58;;;;;;;2.70;2.10;;;;;;;;;;5114527;27;20393;-73
2021/12/31 06:59:25;;;;;;;3.08;2.20;;;;;;;;;;5111827;27;20024;-73
2021/12/31 07:01:51;;;;;;;3.47;2.45;;;;;;;;;;5099289;28;20035;-73
2021/12/31 07:04:17;;;;;;;3.70;2.30;;;;;;;;;;5114619;27;20413;-73
2021/12/31 07:06:44;;;;;;;2.13;1.92;;;;;;;;;;5115048;27;20030;-74
2021/12/31 07:09:10;;;;;;;2.30;1.70;;;;;;;;;;5110005;27;20053;-73
2021/12/31 07:11:36;;;;;;;3.05;1.50;;;;;;;;;;5126589;27;20016;-74
2021/12/31 07:14:03;;;;;;;1.35;1.00;;;;;;;;;;5098539;28;20042;-73
2021/12/31 07:16:29;;;;;;;1.45;1.27;;;;;;;;;;5115362;27;20026;-73
2021/12/31 07:18:56;;;;;;;2.20;1.17;;;;;;;;;;5110017;28;20024;-74
2021/12/31 07:21:22;;;;;;;3.42;1.10;;;;;;;;;;5114581;27;20033;-73
2021/12/31 07:23:48;;;;;;;2.25;1.20;;;;;;;;;;5112449;27;20035;-74
2021/12/31 07:26:15;;;;;;;2.25;0.90;;;;;;;;;;5114196;27;20023;-74
2021/12/31 07:28:41;;;;;;;1.83;1.10;;;;;;;;;;5116180;27;20034;-73
2021/12/31 07:31:12;;;;;;;1.70;1.50;;;;;;;;;;5114440;27;20393;-74
2021/12/31 07:33:38;;;;;;;2.97;1.90;;;;;;;;;;5114029;27;20019;-73
2021/12/31 07:36:05;;;;;;;2.15;1.70;;;;;;;;;;5114215;27;20046;-73
2021/12/31 07:38:34;;;;;;;4.75;1.70;;;;;;;;;;5109797;28;20007;-73
2021/12/31 07:41:01;;;;;;;3.33;1.70;;;;;;;;;;5116838;27;20028;-73
2021/12/31 07:43:28;;;;;;;1.65;1.23;;;;;;;;;;5114600;27;20031;-73
2021/12/31 07:45:55;;;;;;;6.25;1.48;;;;;;;;;;5113869;27;20034;-73
2021/12/31 07:48:22;;;;;;;1.73;1.58;;;;;;;;;;5109135;28;20527;-73
2021/12/31 07:50:48;;;;;;;7.03;1.90;;;;;;;;;;5109532;28;20433;-73
2021/12/31 07:53:15;;;;;;;3.50;1.60;;;;;;;;;;5111757;28;20501;-73
2021/12/31 07:55:41;;;;;;;1.73;1.40;;;;;;;;;;5110863;28;20528;-73
2021/12/31 07:58:08;;;;;;;2.42;1.30;;;;;;;;;;5110575;28;20038;-73
2021/12/31 08:00:35;;;;;;;2.53;1.90;;;;;;;;;;5109224;28;20020;-73
2021/12/31 08:03:02;;;;;;;2.70;2.05;;;;;;;;;;5109206;28;20080;-73
2021/12/31 08:05:29;;;;;;;3.30;1.60;;;;;;;;;;5093336;28;20028;-74
2021/12/31 08:07:55;;;;;;;2.15;1.70;;;;;;;;;;5112541;28;20041;-73
2021/12/31 08:10:22;;;;;;;3.33;1.63;;;;;;;;;;5109011;28;20028;-73
2021/12/31 08:12:48;;;;;;;2.35;1.40;;;;;;;;;;5109408;28;20022;-74
2021/12/31 08:15:15;;;;;;;1.65;1.40;;;;;;;;;;5108538;28;20084;-73
2021/12/31 08:17:41;;;;;;;2.03;1.20;;;;;;;;;;5109111;28;20020;-73
2021/12/31 08:20:08;;;;;;;2.03;1.05;;;;;;;;;;5111708;28;20026;-73
2021/12/31 08:22:34;;;;;;;2.13;1.48;;;;;;;;;;5109902;28;20024;-74
2021/12/31 08:25:00;;;;;;;2.88;1.73;;;;;;;;;;5108959;28;20398;-73
2021/12/31 08:27:27;;;;;;;1.40;1.13;;;;;;;;;;5108970;28;20026;-73
2021/12/31 08:29:53;;;;;;;1.38;1.00;;;;;;;;;;5109190;28;20026;-74
2021/12/31 08:32:19;;;;;;;3.90;1.48;;;;;;;;;;5110087;28;20073;-73
2021/12/31 08:34:46;;;;;;;2.40;1.58;;;;;;;;;;5111085;28;20040;-73
2021/12/31 08:37:12;;;;;;;3.58;2.00;;;;;;;;;;5110258;28;20034;-74
2021/12/31 08:39:38;;;;;;;6.43;2.05;;;;;;;;;;5108792;28;20015;-73
2021/12/31 08:42:05;;;;;;;3.33;2.00;;;;;;;;;;5108660;28;20409;-74
2021/12/31 08:44:31;;;;;;;2.33;1.90;;;;;;;;;;5108724;28;20042;-74
2021/12/31 08:46:58;;;;;;;4.47;2.40;;;;;;;;;;5126431;28;20047;-71
2021/12/31 08:49:24;;;;;;;4.72;2.38;;;;;;;;;;5113322;28;20402;-71
2021/12/31 08:51:51;;;;;;;4.75;2.25;;;;;;;;;;5113088;28;20012;-72
2021/12/31 08:54:17;;;;;;;4.78;2.03;;;;;;;;;;5113217;28;20023;-72
2021/12/31 08:56:45;;;;;;;2.05;1.83;;;;;;;;;;5110458;28;20479;-71
2021/12/31 08:59:12;;;;;;;2.20;1.52;;;;;;;;;;5112908;28;20019;-72
2021/12/31 09:01:39;;;;;;;2.13;1.10;;;;;;;;;;5114318;28;20022;-72
2021/12/31 09:04:05;;;;;;;7.38;2.97;;;;;;;;;;5112938;28;20065;-71
2021/12/31 09:06:31;;;;;;;18.77;7.35;;;;;;;;;;5112888;28;20024;-72
2021/12/31 09:08:58;;;;;;;12.70;4.38;;;;;;;;;;5112396;28;20490;-72
2021/12/31 09:11:24;;;;;;;0.93;0.65;;;;;;;;;;5110127;28;20031;-72
2021/12/31 09:13:54;;;;;;;2.88;0.65;;;;;;;;;;5115354;28;20028;-71
2021/12/31 09:16:20;;;;;;;3.03;1.05;;;;;;;;;;5114412;28;20080;-71
2021/12/31 09:18:47;;;;;;;2.50;1.02;;;;;;;;;;5113152;28;20024;-71
2021/12/31 09:21:17;;;;;;;2.38;1.10;;;;;;;;;;5112760;28;20029;-72
2021/12/31 09:23:44;;;;;;;5.25;0.90;;;;;;;;;;5110296;28;20032;-71
2021/12/31 09:26:11;;;;;;;5.68;1.40;;;;;;;;;;5115668;28;20030;-71
2021/12/31 09:28:38;;;;;;;2.53;1.58;;;;;;;;;;5117647;27;20028;-72
2021/12/31 09:31:07;;;;;;;3.00;1.20;;;;;;;;;;5116952;27;20035;-72
2021/12/31 09:33:34;;;;;;;3.22;1.02;;;;;;;;;;5116834;27;20015;-72
2021/12/31 09:36:00;;;;;;;1.35;0.85;;;;;;;;;;5116191;27;20400;-72
2021/12/31 09:38:27;;;;;;;1.08;0.90;;;;;;;;;;5113071;28;20069;-71
2021/12/31 09:40:54;;;;;;;1.15;1.00;;;;;;;;;;5119665;27;20046;-71
2021/12/31 09:43:20;;;;;;;1.02;0.93;;;;;;;;;;5116008;27;20034;-71
2021/12/31 09:45:49;;;;;;;1.65;0.80;;;;;;;;;;5116152;27;20043;-71
2021/12/31 09:48:17;;;;;;;0.85;0.75;;;;;;;;;;5111683;28;20027;-71
2021/12/31 09:50:44;;;;;;;0.85;0.85;;;;;;;;;;5111873;28;20028;-72
2021/12/31 09:53:12;;;;;;;1.40;0.80;;;;;;;;;;5114132;28;20026;-71
2021/12/31 09:55:48;;;;;;;2.97;1.10;;;;;;;;;;5114697;28;20027;-71
2021/12/31 09:58:16;;;;;;;1.35;1.00;;;;;;;;;;5110889;28;20033;-71
2021/12/31 10:00:44;;;;;;;1.65;1.25;;;;;;;;;;5111344;28;20038;-71
2021/12/31 10:03:25;;;;;;;1.63;1.02;;;;;;;;;;5111097;28;20024;-72
2021/12/31 10:05:56;;;;;;;2.58;0.98;;;;;;;;;;5092960;28;20035;-72
2021/12/31 10:08:23;;;;;;;3.22;1.00;;;;;;;;;;5112658;28;20061;-71
2021/12/31 10:11:04;;;;;;;2.85;1.00;;;;;;;;;;5113773;28;20405;-72
2021/12/31 10:13:31;;;;;;;1.90;1.27;;;;;;;;;;5111467;28;20030;-71
2021/12/31 10:15:58;;;;;;;3.10;1.27;;;;;;;;;;5111079;28;20038;-71
2021/12/31 10:18:31;;;;;;;1.90;1.20;;;;;;;;;;5110918;28;20505;-72
2021/12/31 10:20:57;;;;;;;2.55;1.00;;;;;;;;;;5111375;28;20031;-72
2021/12/31 10:23:24;;;;;;;1.77;1.30;;;;;;;;;;5112032;28;20028;-72
2021/12/31 10:25:50;;;;;;;1.17;1.10;;;;;;;;;;5113554;28;20031;-72
2021/12/31 10:28:17;;;;;;;1.23;1.10;;;;;;;;;;5110813;28;20088;-71
2021/12/31 10:30:44;;;;;;;1.67;1.10;;;;;;;;;;5110991;28;20027;-71
2021/12/31 10:33:11;;;;;;;1.77;1.38;;;;;;;;;;5112065;28;20474;-72
2021/12/31 10:35:44;;;;;;;2.30;1.17;;;;;;;;;;5111227;28;20023;-71
2021/12/31 10:38:12;;;;;;;1.38;1.10;;;;;;;;;;5112552;28;20038;-71
2021/12/31 10:40:40;;;;;;;2.20;1.05;;;;;;;;;;5111467;28;20470;-71
2021/12/31 10:43:10;;;;;;;1.15;1.00;;;;;;;;;;5110502;28;20084;-71
2021/12/31 10:45:40;;;;;;;2.27;1.03;;;;;;;;;;5113199;27;21166;-71
2021/12/31 10:48:08;;;;;;;1.10;1.00;;;;;;;;;;5126470;27;20027;-72
2021/12/31 10:50:35;;;;;;;6.88;2.17;;;;;;;;;;5092568;27;20030;-71
2021/12/31 10:53:09;;;;;;;5.28;1.10;;;;;;;;;;5099977;28;20027;-71
2021/12/31 10:55:39;;;;;;;1.30;1.00;;;;;;;;;;5117310;27;20034;-71
2021/12/31 10:58:07;;;;;;;1.13;0.85;;;;;;;;;;5115055;27;20022;-71
2021/12/31 11:00:35;;;;;;;0.90;0.90;;;;;;;;;;5114839;27;20030;-71
2021/12/31 11:03:02;;;;;;;4.80;1.10;;;;;;;;;;5114475;27;20027;-71
2021/12/31 11:05:28;;;;;;;2.05;1.05;;;;;;;;;;5111154;28;20027;-72
2021/12/31 11:07:56;;;;;;;3.10;1.10;;;;;;;;;;5117972;27;20035;-71
2021/12/31 11:10:26;;;;;;;1.55;1.30;;;;;;;;;;5108439;28;20482;-72
2021/12/31 11:12:53;;;;;;;0.88;0.88;;;;;;;;;;5116569;27;20023;-71
2021/12/31 11:15:20;;;;;;;1.92;1.00;;;;;;;;;;5114935;27;20033;-71
2021/12/31 11:17:48;;;;;;;1.90;1.13;;;;;;;;;;5113118;27;20073;-71
2021/12/31 11:20:20;;;;;;;3.47;1.13;;;;;;;;;;5114471;27;20035;-71
2021/12/31 11:22:46;;;;;;;5.20;1.40;;;;;;;;;;5098315;28;20038;-71
2021/12/31 11:25:19;;;;;;;3.85;1.08;;;;;;;;;;5114137;27;20042;-71
2021/12/31 11:27:47;;;;;;;5.28;1.20;;;;;;;;;;5114655;27;20053;-71
2021/12/31 11:30:27;;;;;;;1.48;1.00;;;;;;;;;;5114290;27;20023;-71
2021/12/31 11:33:10;;;;;;;2.23;1.30;;;;;;;;;;5112875;27;20038;-72
2021/12/31 11:35:40;;;;;;;2.30;1.40;;;;;;;;;;5076963;27;20028;-72
2021/12/31 11:38:08;;;;;;;3.28;1.20;;;;;;;;;;5115851;27;20027;-71
2021/12/31 11:40:39;;;;;;;1.25;1.15;;;;;;;;;;5115031;27;20030;-71
2021/12/31 11:43:14;;;;;;;1.38;0.88;;;;;;;;;;5095973;28;20031;-72
2021/12/31 11:45:41;;;;;;;0.95;0.80;;;;;;;;;;5095840;28;20042;-71
2021/12/31 11:48:28;;;;;;;2.10;1.20;;;;;;;;;;5093763;28;20091;-72
2021/12/31 11:51:04;;;;;;;1.02;0.88;;;;;;;;;;5103315;28;20036;-72
2021/12/31 11:53:30;;;;;;;3.95;0.80;;;;;;;;;;5075020;28;20405;-71
2021/12/31 11:55:57;;;;;;;0.95;0.90;;;;;;;;;;5113100;28;20019;-72
2021/12/31 11:58:37;;;;;;;1.17;0.98;;;;;;;;;;5109196;28;20077;-71
2021/12/31 12:01:22;;;;;;;2.15;0.90;;;;;;;;;;5109348;28;20027;-71
2021/12/31 12:03:49;;;;;;;3.72;1.95;;;;;;;;;;5109282;28;20035;-71
2021/12/31 12:06:34;;;;;;;5.45;2.08;;;;;;;;;;5108969;28;20022;-72
2021/12/31 12:09:00;;;;;;;2.90;2.00;;;;;;;;;;5109003;28;20057;-71
2021/12/31 12:11:45;;;;;;;3.50;1.77;;;;;;;;;;5109631;28;20028;-71
2021/12/31 12:14:28;;;;;;;2.15;1.55;;;;;;;;;;5109195;28;20028;-72
2021/12/31 12:16:58;;;;;;;2.38;1.20;;;;;;;;;;5112197;28;20024;-72
2021/12/31 12:19:43;;;;;;;2.38;1.10;;;;;;;;;;5108741;28;20029;-71
2021/12/31 12:22:09;;;;;;;1.02;0.93;;;;;;;;;;5108463;28;20031;-72
2021/12/31 12:24:36;;;;;;;1.95;0.98;;;;;;;;;;5090591;28;20042;-71
2021/12/31 12:27:03;;;;;;;1.90;1.02;;;;;;;;;;5109225;28;20034;-71
2021/12/31 12:29:30;;;;;;;1.15;1.10;;;;;;;;;;5094197;28;20066;-71
2021/12/31 12:32:09;;;;;;;2.33;1.17;;;;;;;;;;5112138;28;20030;-71
2021/12/31 12:34:35;;;;;;;2.05;0.90;;;;;;;;;;5111254;28;20024;-71
2021/12/31 12:37:02;;;;;;;4.88;1.17;;;;;;;;;;5108295;28;20092;-71
2021/12/31 12:39:28;;;;;;;3.20;1.00;;;;;;;;;;5090873;28;20038;-71
2021/12/31 12:41:54;;;;;;;2.47;1.58;;;;;;;;;;5108729;28;20012;-71
2021/12/31 12:44:21;;;;;;;1.38;1.17;;;;;;;;;;5110241;28;20061;-71
2021/12/31 12:46:54;;;;;;;2.22;1.40;;;;;;;;;;5123386;27;20047;-72
2021/12/31 12:49:23;;;;;;;1.48;1.38;;;;;;;;;;5114076;28;20023;-71
2021/12/31 12:51:50;;;;;;;1.45;1.35;;;;;;;;;;5112845;28;20022;-72
2021/12/31 12:54:24;;;;;;;2.33;1.20;;;;;;;;;;5113252;28;20533;-71
2021/12/31 12:56:51;;;;;;;2.45;1.42;;;;;;;;;;5111574;28;20038;-71
2021/12/31 12:59:21;;;;;;;2.85;1.05;;;;;;;;;;5094094;28;20031;-71
2021/12/31 13:01:49;;;;;;;1.48;1.38;;;;;;;;;;5126907;27;20384;-72
2021/12/31 13:04:17;;;;;;;2.75;1.30;;;;;;;;;;5118763;27;20040;-71
2021/12/31 13:06:44;;;;;;;1.40;1.20;;;;;;;;;;5117103;27;20381;-71
2021/12/31 13:09:16;;;;;;;1.95;1.40;;;;;;;;;;5118687;27;20034;-72
2021/12/31 13:11:53;;;;;;;1.17;1.00;;;;;;;;;;5114177;27;20030;-72
2021/12/31 13:14:20;;;;;;;2.40;1.35;;;;;;;;;;5116391;27;20059;-71
2021/12/31 13:16:49;;;;;;;3.42;1.27;;;;;;;;;;5119053;27;20023;-71
2021/12/31 13:19:15;;;;;;;1.33;1.20;;;;;;;;;;5117082;27;20026;-71
2021/12/31 13:21:42;;;;;;;2.35;1.15;;;;;;;;;;5116558;27;20020;-71
2021/12/31 13:24:09;;;;;;;2.85;1.30;;;;;;;;;;5116904;27;20371;-71
2021/12/31 13:26:36;;;;;;;3.28;1.33;;;;;;;;;;5113137;27;20015;-71
2021/12/31 13:29:06;;;;;;;1.40;1.20;;;;;;;;;;5119664;27;20092;-70
2021/12/31 13:31:33;;;;;;;1.45;1.20;;;;;;;;;;5117764;27;20031;-71
2021/12/31 13:34:10;;;;;;;3.85;1.50;;;;;;;;;;5116599;27;20540;-71
2021/12/31 13:36:44;;;;;;;2.67;1.30;;;;;;;;;;5116265;27;20485;-71
2021/12/31 13:39:14;;;;;;;1.52;1.13;;;;;;;;;;5116569;27;20095;-71
2021/12/31 13:41:47;;;;;;;1.45;1.02;;;;;;;;;;5113551;27;20055;-71
2021/12/31 13:44:14;;;;;;;2.72;1.48;;;;;;;;;;5116715;27;20036;-71
2021/12/31 13:46:44;;;;;;;3.25;1.25;;;;;;;;;;5117343;27;20044;-71
2021/12/31 13:49:13;;;;;;;2.45;1.33;;;;;;;;;;5112644;28;20038;-71
2021/12/31 13:51:40;;;;;;;2.88;1.42;;;;;;;;;;5111944;28;20020;-71
2021/12/31 13:54:08;;;;;;;1.40;1.30;;;;;;;;;;5111514;28;20584;-71
2021/12/31 13:56:34;;;;;;;2.05;1.33;;;;;;;;;;5111389;28;20024;-72
2021/12/31 13:59:16;;;;;;;3.20;1.50;;;;;;;;;;5115282;28;20032;-71
2021/12/31 14:02:01;;;;;;;1.67;1.15;;;;;;;;;;5112851;28;20031;-71
2021/12/31 14:04:27;;;;;;;2.75;1.45;;;;;;;;;;5111425;28;20085;-71
2021/12/31 14:06:59;;;;;;;2.80;1.80;;;;;;;;;;5089002;28;20023;-71
2021/12/31 14:09:26;;;;;;;5.50;2.20;;;;;;;;;;5111326;28;20031;-72
2021/12/31 14:11:56;;;;;;;6.22;2.20;;;;;;;;;;5110581;28;20020;-71
2021/12/31 14:14:23;;;;;;;2.55;1.85;;;;;;;;;;5112832;28;20038;-71
2021/12/31 14:16:49;;;;;;;5.32;1.88;;;;;;;;;;5114060;28;20042;-71
2021/12/31 14:19:16;;;;;;;4.80;1.80;;;;;;;;;;5088280;28;20521;-71
2021/12/31 14:21:42;;;;;;;4.63;1.90;;;;;;;;;;5093221;28;20034;-71
2021/12/31 14:24:08;;;;;;;3.75;1.77;;;;;;;;;;5111109;28;20038;-71
2021/12/31 14:26:36;;;;;;;2.22;2.00;;;;;;;;;;5112589;28;20034;-71
2021/12/31 14:29:03;;;;;;;4.65;2.03;;;;;;;;;;5114355;28;20397;-71
2021/12/31 14:31:29;;;;;;;2.40;1.70;;;;;;;;;;5111360;28;20562;-71
2021/12/31 14:33:56;;;;;;;3.70;1.90;;;;;;;;;;5110949;28;20015;-71
2021/12/31 14:36:24;;;;;;;6.00;1.98;;;;;;;;;;5111010;28;20019;-72
2021/12/31 14:38:50;;;;;;;5.35;2.00;;;;;;;;;;5111008;28;20075;-71
2021/12/31 14:41:22;;;;;;;3.20;2.10;;;;;;;;;;5095107;28;20030;-71
2021/12/31 14:43:52;;;;;;;4.40;1.98;;;;;;;;;;5112951;28;20031;-72
2021/12/31 14:46:19;;;;;;;4.75;2.10;;;;;;;;;;5119289;27;20038;-71
2021/12/31 14:48:45;;;;;;;3.33;2.08;;;;;;;;;;5120732;27;20026;-71
2021/12/31 14:51:12;;;;;;;3.15;2.08;;;;;;;;;;5115402;27;20508;-72
2021/12/31 14:53:38;;;;;;;2.75;2.08;;;;;;;;;;5111463;27;20398;-71